Time;durP1;ratioP1;P1;durP2;ratioP2;P2;SDS_P1;SDS_P2;PMS_P1;PMS_P2;Temp;Humidity;BMP_temperature;BMP_pressure;BME280_temperature;BME280_humidity;BME280_pressure;Samples;Min_cycle;Max_cycle;Signal;HPM_P1;HPM_P2
2022/07/16 00:03:02;;;;;;;;;;;;;;;17.31;67.48;97420.05;110592;1244;71575;-74
2022/07/16 00:05:32;;;;;;;;;;;;;;;17.27;67.61;97419.52;110236;1245;68522;-75
2022/07/16 00:08:02;;;;;;;;;;;;;;;17.24;63.64;97419.15;110538;1244;68506;-74
2022/07/16 00:10:31;;;;;;;;;;;;;;;17.20;65.75;97421.31;110375;1247;59735;-74
2022/07/16 00:13:02;;;;;;;;;;;;;;;17.16;65.76;97423.97;110432;1245;59742;-74
2022/07/16 00:15:32;;;;;;;;;;;;;;;17.13;68.77;97423.05;110526;1244;71838;-74
2022/07/16 00:20:49;;;;;;;;;;;;;;;17.03;68.93;97429.02;110500;1246;69698;-75
2022/07/16 00:23:19;;;;;;;;;;;;;;;16.97;68.04;97426.38;110443;1244;59681;-75
2022/07/16 00:25:48;;;;;;;;;;;;;;;16.93;68.96;97422.27;110526;1244;59742;-74
2022/07/16 00:28:17;;;;;;;;;;;;;;;16.89;68.73;97420.05;110253;1247;70750;-74
2022/07/16 00:30:46;;;;;;;;;;;;;;;16.85;68.05;97423.02;110429;1246;68551;-75
2022/07/16 00:33:17;;;;;;;;;;;;;;;16.80;67.78;97427.20;110400;1245;69221;-74
2022/07/16 00:35:47;;;;;;;;;;;;;;;16.73;68.36;97426.30;110182;1248;59800;-75
2022/07/16 00:38:17;;;;;;;;;;;;;;;16.63;65.72;97427.76;110457;1245;59589;-74
2022/07/16 00:40:46;;;;;;;;;;;;;;;16.53;66.09;97430.13;110488;1244;70628;-75
2022/07/16 00:43:16;;;;;;;;;;;;;;;16.42;65.91;97434.19;110577;1244;67766;-74
2022/07/16 00:45:46;;;;;;;;;;;;;;;16.33;67.17;97433.68;110531;1244;67816;-75
2022/07/16 00:48:15;;;;;;;;;;;;;;;16.24;67.12;97429.81;110239;1244;59760;-76
2022/07/16 00:50:45;;;;;;;;;;;;;;;16.15;68.98;97432.27;110319;1247;59600;-74
2022/07/16 00:53:15;;;;;;;;;;;;;;;16.06;66.75;97430.23;110237;1244;71356;-74
2022/07/16 00:55:44;;;;;;;;;;;;;;;15.99;67.65;97427.98;110188;1248;68578;-73
2022/07/16 00:58:15;;;;;;;;;;;;;;;15.92;69.11;97431.28;110261;1248;69262;-75
2022/07/16 01:00:45;;;;;;;;;;;;;;;15.84;69.38;97427.13;110100;1247;59678;-73
2022/07/16 01:03:14;;;;;;;;;;;;;;;15.77;67.97;97424.54;110423;1247;59670;-75
2022/07/16 01:05:44;;;;;;;;;;;;;;;15.73;69.00;97423.41;110413;1244;71491;-75
2022/07/16 01:08:13;;;;;;;;;;;;;;;15.67;69.09;97423.42;110508;1247;68657;-74
2022/07/16 01:10:44;;;;;;;;;;;;;;;15.62;69.35;97427.34;110353;1245;69391;-74
2022/07/16 01:13:15;;;;;;;;;;;;;;;15.57;69.80;97429.24;110239;1248;59764;-74
2022/07/16 01:15:45;;;;;;;;;;;;;;;15.52;69.56;97427.23;110352;1247;60181;-75
2022/07/16 01:18:14;;;;;;;;;;;;;;;15.48;68.81;97427.23;110537;1244;71444;-76
2022/07/16 01:20:45;;;;;;;;;;;;;;;15.44;69.51;97424.95;110438;1244;67646;-75
2022/07/16 01:23:19;;;;;;;;;;;;;;;15.41;69.49;97419.85;110310;1247;69400;-74
2022/07/16 01:25:51;;;;;;;;;;;;;;;15.38;69.09;97418.39;110109;1250;59755;-76
2022/07/16 01:28:21;;;;;;;;;;;;;;;15.36;69.33;97418.34;110477;1244;59811;-74
2022/07/16 01:30:51;;;;;;;;;;;;;;;15.35;70.52;97412.66;110242;1247;71014;-73
2022/07/16 01:33:25;;;;;;;;;;;;;;;15.35;69.12;97406.51;109998;1250;68565;-74
2022/07/16 01:35:57;;;;;;;;;;;;;;;15.33;71.07;97408.86;110261;1247;69280;-74
2022/07/16 01:38:28;;;;;;;;;;;;;;;15.30;70.54;97410.08;110308;1245;59739;-75
2022/07/16 01:40:59;;;;;;;;;;;;;;;15.26;72.86;97418.54;110338;1247;59748;-74
2022/07/16 01:43:30;;;;;;;;;;;;;;;15.21;73.28;97416.74;110211;1248;70775;-75
2022/07/16 01:46:02;;;;;;;;;;;;;;;15.16;71.99;97419.46;110271;1247;66661;-75
2022/07/16 01:48:31;;;;;;;;;;;;;;;15.14;71.22;97416.66;110035;1248;69246;-74
2022/07/16 01:51:02;;;;;;;;;;;;;;;15.11;71.04;97407.80;110248;1248;59720;-74
2022/07/16 01:53:33;;;;;;;;;;;;;;;15.07;71.93;97406.06;110301;1247;59711;-74
2022/07/16 01:56:05;;;;;;;;;;;;;;;15.04;73.98;97405.51;110407;1247;70705;-74
2022/07/16 01:58:38;;;;;;;;;;;;;;;15.00;75.13;97399.36;110327;1247;68616;-74
2022/07/16 02:01:09;;;;;;;;;;;;;;;14.98;76.39;97399.16;110519;1247;69412;-74
2022/07/16 02:03:38;;;;;;;;;;;;;;;14.98;76.46;97397.61;110276;1244;59695;-75
2022/07/16 02:06:08;;;;;;;;;;;;;;;14.97;76.29;97397.11;110276;1247;59750;-75
2022/07/16 02:08:38;;;;;;;;;;;;;;;14.98;75.47;97396.05;110587;1244;70766;-74
2022/07/16 02:11:08;;;;;;;;;;;;;;;14.96;75.86;97400.23;110280;1246;67896;-74
2022/07/16 02:13:38;;;;;;;;;;;;;;;14.96;76.43;97407.77;110562;1244;68680;-75
2022/07/16 02:16:08;;;;;;;;;;;;;;;14.96;76.28;97402.17;110203;1247;59740;-73
2022/07/16 02:18:37;;;;;;;;;;;;;;;14.96;76.25;97397.41;110213;1248;59731;-75
2022/07/16 02:21:09;;;;;;;;;;;;;;;14.97;76.50;97391.73;110289;1246;71528;-74
2022/07/16 02:23:39;;;;;;;;;;;;;;;14.98;76.46;97387.60;110186;1247;68458;-74
2022/07/16 02:26:10;;;;;;;;;;;;;;;14.99;76.59;97390.63;110299;1247;69002;-73
2022/07/16 02:28:39;;;;;;;;;;;;;;;15.02;76.32;97391.95;110350;1244;59618;-75
2022/07/16 02:31:10;;;;;;;;;;;;;;;15.06;75.92;97388.30;110589;1244;59676;-75
2022/07/16 02:33:40;;;;;;;;;;;;;;;15.09;75.93;97393.48;110443;1244;70624;-75
2022/07/16 02:36:10;;;;;;;;;;;;;;;15.12;76.05;97400.32;110546;1247;68671;-77
2022/07/16 02:38:40;;;;;;;;;;;;;;;15.15;74.63;97401.45;110265;1247;68327;-75
2022/07/16 02:41:09;;;;;;;;;;;;;;;15.16;73.00;97396.32;110176;1248;59762;-74
2022/07/16 02:43:40;;;;;;;;;;;;;;;15.15;73.30;97393.73;110200;1247;59662;-74
2022/07/16 02:46:10;;;;;;;;;;;;;;;15.13;75.15;97394.67;110229;1247;71526;-76
2022/07/16 02:48:41;;;;;;;;;;;;;;;15.10;76.01;97399.38;110409;1245;68414;-77
2022/07/16 02:51:10;;;;;;;;;;;;;;;15.00;76.07;97396.69;110320;1247;69249;-76
2022/07/16 02:53:40;;;;;;;;;;;;;;;14.94;77.10;97392.32;110074;1250;59618;-75
2022/07/16 02:56:10;;;;;;;;;;;;;;;14.92;77.37;97389.77;110247;1247;59750;-74
2022/07/16 02:58:39;;;;;;;;;;;;;;;14.91;77.68;97388.91;110236;1247;70742;-75
2022/07/16 03:01:08;;;;;;;;;;;;;;;14.90;78.43;97386.52;110234;1248;68547;-75
2022/07/16 03:03:38;;;;;;;;;;;;;;;14.91;78.13;97383.73;110280;1247;69250;-74
2022/07/16 03:06:08;;;;;;;;;;;;;;;14.90;78.67;97380.21;110280;1247;59728;-76
2022/07/16 03:08:37;;;;;;;;;;;;;;;14.92;77.92;97381.34;110219;1248;59676;-74
2022/07/16 03:11:07;;;;;;;;;;;;;;;14.93;75.67;97382.48;110230;1247;70750;-74
2022/07/16 03:13:36;;;;;;;;;;;;;;;14.92;76.78;97384.11;110242;1248;68438;-75
2022/07/16 03:16:05;;;;;;;;;;;;;;;14.89;75.91;97387.89;110415;1246;69374;-75
2022/07/16 03:18:36;;;;;;;;;;;;;;;14.86;77.48;97386.75;110280;1247;59767;-75
2022/07/16 03:21:06;;;;;;;;;;;;;;;14.85;78.38;97386.16;110340;1247;59735;-77
2022/07/16 03:23:35;;;;;;;;;;;;;;;14.87;77.53;97389.11;110430;1246;71580;-74
2022/07/16 03:26:05;;;;;;;;;;;;;;;14.90;78.05;97393.40;110574;1247;68559;-75
2022/07/16 03:28:36;;;;;;;;;;;;;;;14.92;77.22;97389.90;110270;1247;69261;-74
2022/07/16 03:31:05;;;;;;;;;;;;;;;14.94;77.93;97389.23;110273;1247;59717;-75
2022/07/16 03:33:35;;;;;;;;;;;;;;;14.95;77.79;97390.02;110449;1245;59725;-76
2022/07/16 03:36:05;;;;;;;;;;;;;;;14.96;76.99;97387.73;110544;1247;71570;-76
2022/07/16 03:41:23;;;;;;;;;;;;;;;15.01;77.26;97388.35;110367;1247;69429;-75
2022/07/16 03:43:53;;;;;;;;;;;;;;;15.03;77.60;97387.48;110183;1248;59707;-74
2022/07/16 03:46:23;;;;;;;;;;;;;;;15.04;78.28;97392.13;110186;1247;59686;-74
2022/07/16 03:48:52;;;;;;;;;;;;;;;15.05;77.86;97394.73;110317;1246;71379;-75
2022/07/16 03:51:22;;;;;;;;;;;;;;;15.03;77.99;97397.66;110130;1248;67839;-74
2022/07/16 03:53:53;;;;;;;;;;;;;;;15.00;78.29;97396.03;110118;1248;69644;-75
2022/07/16 03:56:24;;;;;;;;;;;;;;;14.99;76.44;97395.23;110481;1247;59751;-74
2022/07/16 03:58:54;;;;;;;;;;;;;;;14.98;75.47;97395.70;110266;1247;59688;-75
2022/07/16 04:01:24;;;;;;;;;;;;;;;14.97;77.00;97399.46;110447;1246;71517;-75
2022/07/16 04:03:54;;;;;;;;;;;;;;;14.95;78.52;97395.95;110071;1247;68368;-75
2022/07/16 04:06:23;;;;;;;;;;;;;;;14.94;78.52;97394.98;110267;1247;69410;-74
2022/07/16 04:08:53;;;;;;;;;;;;;;;14.91;78.52;97400.73;110264;1246;59638;-75
2022/07/16 04:11:22;;;;;;;;;;;;;;;14.90;77.71;97404.69;110542;1247;59721;-75
2022/07/16 04:13:52;;;;;;;;;;;;;;;14.94;77.86;97408.30;110493;1245;71518;-75
2022/07/16 04:16:21;;;;;;;;;;;;;;;14.98;77.61;97401.92;110447;1247;68355;-75
2022/07/16 04:18:51;;;;;;;;;;;;;;;15.06;77.58;97402.48;110179;1247;69259;-74
2022/07/16 04:21:20;;;;;;;;;;;;;;;15.12;77.37;97396.63;110366;1247;59767;-74
2022/07/16 04:23:50;;;;;;;;;;;;;;;15.22;77.02;97405.38;110419;1246;59656;-74
2022/07/16 04:26:19;;;;;;;;;;;;;;;15.33;76.63;97410.16;110401;1247;71457;-75
2022/07/16 04:28:48;;;;;;;;;;;;;;;15.47;76.02;97407.17;110214;1247;68638;-76
2022/07/16 04:31:17;;;;;;;;;;;;;;;15.61;75.94;97401.63;110249;1247;67640;-75
2022/07/16 04:33:47;;;;;;;;;;;;;;;15.79;73.28;97401.04;110512;1244;59729;-75
2022/07/16 04:36:16;;;;;;;;;;;;;;;15.96;73.51;97403.48;110520;1247;59701;-75
2022/07/16 04:38:45;;;;;;;;;;;;;;;16.11;73.55;97402.59;110563;1245;70581;-75
2022/07/16 04:41:14;;;;;;;;;;;;;;;16.25;73.18;97401.52;110288;1246;68479;-75
2022/07/16 04:43:43;;;;;;;;;;;;;;;16.39;72.51;97407.08;110457;1247;68484;-76
2022/07/16 04:46:12;;;;;;;;;;;;;;;16.52;72.69;97407.41;110497;1247;59752;-75
2022/07/16 04:48:41;;;;;;;;;;;;;;;16.64;71.83;97410.26;110549;1247;59667;-74
2022/07/16 04:51:10;;;;;;;;;;;;;;;16.78;71.72;97410.88;110531;1247;71547;-75
2022/07/16 04:53:40;;;;;;;;;;;;;;;16.89;71.69;97414.08;110572;1246;67777;-75
2022/07/16 04:56:09;;;;;;;;;;;;;;;17.02;70.61;97408.73;110243;1247;68502;-75
2022/07/16 04:58:39;;;;;;;;;;;;;;;17.17;70.18;97407.36;110567;1244;59694;-76
2022/07/16 05:01:08;;;;;;;;;;;;;;;17.29;69.14;97407.00;110313;1247;60106;-76
2022/07/16 05:03:39;;;;;;;;;;;;;;;17.45;68.68;97402.64;110515;1247;70712;-74
2022/07/16 05:06:08;;;;;;;;;;;;;;;17.63;68.00;97409.77;110247;1247;68019;-76
2022/07/16 05:08:38;;;;;;;;;;;;;;;17.83;67.11;97409.39;110221;1245;69605;-76
2022/07/16 05:11:10;;;;;;;;;;;;;;;18.04;66.73;97414.76;110558;1244;59739;-76
2022/07/16 05:13:39;;;;;;;;;;;;;;;18.26;66.56;97415.67;110604;1246;59673;-75
2022/07/16 05:16:08;;;;;;;;;;;;;;;18.52;64.50;97418.39;110366;1247;70756;-75
2022/07/16 05:18:36;;;;;;;;;;;;;;;18.78;62.23;97410.88;110384;1247;68626;-76
2022/07/16 05:21:05;;;;;;;;;;;;;;;19.28;62.04;97407.29;110223;1247;68439;-75
2022/07/16 05:23:34;;;;;;;;;;;;;;;19.61;59.88;97413.30;110433;1246;59682;-74
2022/07/16 05:26:03;;;;;;;;;;;;;;;20.07;58.11;97413.02;110506;1245;59735;-76
2022/07/16 05:28:32;;;;;;;;;;;;;;;20.53;58.06;97415.17;110509;1247;70825;-75
2022/07/16 05:31:01;;;;;;;;;;;;;;;21.03;60.20;97409.73;110514;1247;67763;-77
2022/07/16 05:33:30;;;;;;;;;;;;;;;21.53;57.79;97409.48;110374;1247;69388;-75
2022/07/16 05:35:59;;;;;;;;;;;;;;;21.91;58.14;97412.33;110270;1247;59747;-75
2022/07/16 05:38:27;;;;;;;;;;;;;;;22.08;54.35;97409.25;110469;1245;59677;-76
2022/07/16 05:40:56;;;;;;;;;;;;;;;21.89;54.20;97414.64;110425;1245;71567;-74
2022/07/16 05:43:25;;;;;;;;;;;;;;;21.81;54.32;97419.27;110194;1247;68599;-74
2022/07/16 05:45:55;;;;;;;;;;;;;;;21.53;54.16;97418.77;110476;1247;68460;-75
2022/07/16 05:48:24;;;;;;;;;;;;;;;21.43;54.58;97418.15;110260;1247;59749;-77
2022/07/16 05:50:55;;;;;;;;;;;;;;;21.33;54.70;97420.50;110278;1247;59695;-75
2022/07/16 05:53:24;;;;;;;;;;;;;;;21.30;54.92;97421.59;110295;1246;70607;-73
2022/07/16 05:55:53;;;;;;;;;;;;;;;21.45;54.87;97424.84;110470;1246;67822;-74
2022/07/16 05:58:22;;;;;;;;;;;;;;;21.42;54.74;97427.13;110332;1247;68636;-74
2022/07/16 06:00:51;;;;;;;;;;;;;;;21.31;54.57;97422.59;110448;1246;59722;-74
2022/07/16 06:03:20;;;;;;;;;;;;;;;21.32;54.77;97421.04;110505;1247;59716;-74
2022/07/16 06:05:49;;;;;;;;;;;;;;;21.28;55.07;97422.75;110221;1247;71620;-74
2022/07/16 06:08:18;;;;;;;;;;;;;;;21.25;55.17;97423.38;110294;1247;68600;-74
2022/07/16 06:10:47;;;;;;;;;;;;;;;21.12;55.30;97420.56;110380;1245;69532;-76
2022/07/16 06:13:17;;;;;;;;;;;;;;;21.26;55.15;97424.88;110306;1246;59744;-76
2022/07/16 06:15:48;;;;;;;;;;;;;;;21.36;55.03;97424.31;110566;1246;59716;-75
2022/07/16 06:18:16;;;;;;;;;;;;;;;21.62;54.62;97414.19;110466;1244;71562;-77
2022/07/16 06:20:46;;;;;;;;;;;;;;;21.96;54.10;97409.01;110210;1247;68783;-75
2022/07/16 06:23:15;;;;;;;;;;;;;;;22.38;53.27;97403.97;110173;1247;68637;-73
2022/07/16 06:25:43;;;;;;;;;;;;;;;22.83;51.85;97404.70;110170;1247;59675;-76
2022/07/16 06:28:12;;;;;;;;;;;;;;;23.01;50.78;97397.66;110407;1247;59670;-76
2022/07/16 06:30:41;;;;;;;;;;;;;;;23.07;50.80;97398.11;110351;1247;71471;-74
2022/07/16 06:33:10;;;;;;;;;;;;;;;23.45;50.76;97394.71;110154;1246;68593;-73
2022/07/16 06:35:43;;;;;;;;;;;;;;;23.87;49.39;97401.31;110184;1247;68447;-74
2022/07/16 06:38:12;;;;;;;;;;;;;;;24.13;48.05;97399.26;110292;1246;59848;-76
2022/07/16 06:40:43;;;;;;;;;;;;;;;24.06;48.05;97403.36;110313;1246;59634;-74
2022/07/16 06:43:12;;;;;;;;;;;;;;;24.27;47.51;97412.15;110210;1247;71026;-74
2022/07/16 06:45:43;;;;;;;;;;;;;;;24.59;46.34;97415.73;110294;1247;67962;-76
2022/07/16 06:48:12;;;;;;;;;;;;;;;24.40;46.42;97416.83;110443;1246;68635;-75
2022/07/16 06:50:41;;;;;;;;;;;;;;;24.44;46.64;97417.17;110149;1247;60140;-77
2022/07/16 06:53:09;;;;;;;;;;;;;;;24.91;45.85;97414.66;110174;1247;59732;-76
2022/07/16 06:55:38;;;;;;;;;;;;;;;25.20;45.08;97416.30;110343;1245;72043;-76
2022/07/16 06:58:07;;;;;;;;;;;;;;;25.41;44.51;97414.32;110427;1247;67810;-75
2022/07/16 07:00:37;;;;;;;;;;;;;;;25.45;44.01;97417.23;110523;1247;69523;-76
2022/07/16 07:03:06;;;;;;;;;;;;;;;25.59;42.68;97424.06;110524;1246;59747;-76
2022/07/16 07:05:35;;;;;;;;;;;;;;;25.70;42.69;97423.75;110582;1246;59757;-76
2022/07/16 07:08:04;;;;;;;;;;;;;;;25.80;40.70;97423.87;110520;1245;70808;-75
2022/07/16 07:10:33;;;;;;;;;;;;;;;26.13;40.76;97425.11;110613;1246;68741;-75
2022/07/16 07:13:02;;;;;;;;;;;;;;;26.44;40.59;97429.80;110518;1247;68732;-77
2022/07/16 07:15:32;;;;;;;;;;;;;;;26.47;40.07;97427.20;110561;1245;59741;-76
2022/07/16 07:18:01;;;;;;;;;;;;;;;26.66;40.50;97419.62;110493;1246;59754;-77
2022/07/16 07:20:30;;;;;;;;;;;;;;;26.88;39.31;97414.77;110310;1247;71570;-75
2022/07/16 07:22:58;;;;;;;;;;;;;;;26.53;40.04;97416.05;110596;1247;67891;-77
2022/07/16 07:25:27;;;;;;;;;;;;;;;26.79;39.59;97420.23;110542;1247;68693;-75
2022/07/16 07:27:56;;;;;;;;;;;;;;;26.93;39.23;97422.30;110540;1246;59751;-77
2022/07/16 07:30:25;;;;;;;;;;;;;;;26.63;39.46;97423.02;110587;1247;59757;-77
2022/07/16 07:32:55;;;;;;;;;;;;;;;26.15;40.11;97423.36;110261;1247;70658;-77
2022/07/16 07:35:24;;;;;;;;;;;;;;;26.08;40.66;97429.94;110265;1247;68688;-74
2022/07/16 07:37:53;;;;;;;;;;;;;;;26.17;40.12;97424.96;110383;1247;69472;-76
2022/07/16 07:40:22;;;;;;;;;;;;;;;26.17;39.88;97426.95;110002;1245;59746;-75
2022/07/16 07:42:51;;;;;;;;;;;;;;;25.88;39.84;97429.95;110536;1245;59736;-75
2022/07/16 07:45:20;;;;;;;;;;;;;;;25.36;41.09;97430.73;110570;1246;71578;-74
2022/07/16 07:47:49;;;;;;;;;;;;;;;25.96;40.68;97427.64;110524;1245;68595;-72
2022/07/16 07:50:18;;;;;;;;;;;;;;;25.97;39.18;97434.68;110495;1245;69402;-76
2022/07/16 07:52:47;;;;;;;;;;;;;;;26.08;39.44;97432.73;110518;1244;59748;-73
2022/07/16 07:55:16;;;;;;;;;;;;;;;26.14;38.96;97434.25;110593;1247;59744;-75
2022/07/16 07:57:51;;;;;;;;;;;;;;;26.43;39.26;97425.45;110563;1246;70591;-76
2022/07/16 08:00:20;;;;;;;;;;;;;;;26.57;38.33;97427.54;110590;1247;67784;-76
2022/07/16 08:02:49;;;;;;;;;;;;;;;26.47;38.08;97432.42;110470;1247;68650;-73
2022/07/16 08:05:18;;;;;;;;;;;;;;;26.20;38.07;97427.77;110496;1247;59721;-74
2022/07/16 08:07:47;;;;;;;;;;;;;;;26.56;38.54;97423.54;110541;1246;59662;-76
2022/07/16 08:10:16;;;;;;;;;;;;;;;27.23;37.54;97421.09;110190;1247;70054;-77
2022/07/16 08:12:44;;;;;;;;;;;;;;;27.38;35.85;97418.58;110287;1246;67770;-74
2022/07/16 08:15:14;;;;;;;;;;;;;;;26.71;36.99;97434.45;110187;1247;69427;-75
2022/07/16 08:17:42;;;;;;;;;;;;;;;27.01;35.80;97431.28;110223;1247;59810;-76
2022/07/16 08:20:13;;;;;;;;;;;;;;;26.89;35.91;97433.73;110575;1245;59608;-76
2022/07/16 08:22:42;;;;;;;;;;;;;;;26.59;36.05;97437.89;110276;1247;71553;-74
2022/07/16 08:27:58;;;;;;;;;;;;;;;26.53;37.27;97442.89;110227;1246;69467;-73
2022/07/16 08:30:27;;;;;;;;;;;;;;;26.73;37.15;97444.23;110214;1247;59663;-73
2022/07/16 08:32:56;;;;;;;;;;;;;;;26.81;37.81;97447.67;110223;1247;59748;-75
2022/07/16 08:35:25;;;;;;;;;;;;;;;26.00;38.32;97447.83;110557;1245;71537;-77
2022/07/16 08:37:53;;;;;;;;;;;;;;;25.83;38.30;97446.77;110579;1245;68803;-76
2022/07/16 08:40:23;;;;;;;;;;;;;;;25.45;38.55;97451.98;110575;1246;68778;-73
2022/07/16 08:42:52;;;;;;;;;;;;;;;25.60;39.10;97449.35;110600;1245;59758;-75
2022/07/16 08:45:22;;;;;;;;;;;;;;;25.13;39.13;97457.55;110573;1245;59684;-76
2022/07/16 08:47:52;;;;;;;;;;;;;;;24.78;40.21;97460.48;110236;1247;71574;-74
2022/07/16 08:50:20;;;;;;;;;;;;;;;24.86;39.30;97460.47;110472;1246;67264;-75
2022/07/16 08:52:51;;;;;;;;;;;;;;;24.76;37.97;97464.02;110227;1246;68465;-74
2022/07/16 08:55:24;;;;;;;;;;;;;;;24.56;37.43;97466.11;110507;1245;59644;-75
2022/07/16 08:57:53;;;;;;;;;;;;;;;24.57;37.58;97469.06;110446;1245;60070;-75
2022/07/16 09:00:22;;;;;;;;;;;;;;;24.29;37.85;97465.70;110274;1246;71577;-75
2022/07/16 09:02:52;;;;;;;;;;;;;;;24.18;38.67;97477.71;110565;1246;67690;-74
2022/07/16 09:05:20;;;;;;;;;;;;;;;24.00;40.06;97476.40;110511;1245;68731;-76
2022/07/16 09:07:50;;;;;;;;;;;;;;;24.05;40.22;97477.13;110517;1246;59710;-76
2022/07/16 09:10:19;;;;;;;;;;;;;;;24.52;39.49;97468.92;110253;1247;59645;-75
2022/07/16 09:12:48;;;;;;;;;;;;;;;25.14;38.50;97461.79;110590;1247;71588;-75
2022/07/16 09:15:22;;;;;;;;;;;;;;;25.44;38.78;97461.91;110600;1245;67822;-75
2022/07/16 09:18:11;;;;;;;;;;;;;;;25.75;38.54;97465.02;110566;1244;69410;-76
2022/07/16 09:20:45;;;;;;;;;;;;;;;25.67;38.24;97467.60;110392;1246;59695;-74
2022/07/16 09:23:17;;;;;;;;;;;;;;;25.60;38.91;97466.41;110549;1245;59831;-76
2022/07/16 09:25:47;;;;;;;;;;;;;;;25.82;38.21;97467.48;110217;1247;71614;-73
2022/07/16 09:28:17;;;;;;;;;;;;;;;26.05;37.38;97462.29;110580;1245;69097;-75
2022/07/16 09:30:47;;;;;;;;;;;;;;;26.25;37.11;97464.30;110563;1247;68885;-76
2022/07/16 09:33:18;;;;;;;;;;;;;;;26.31;36.21;97468.27;110307;1247;59665;-75
2022/07/16 09:35:48;;;;;;;;;;;;;;;26.19;35.37;97461.81;110575;1247;59681;-76
2022/07/16 09:38:17;;;;;;;;;;;;;;;26.66;34.67;97470.77;110576;1245;71556;-74
2022/07/16 09:40:46;;;;;;;;;;;;;;;26.78;33.75;97462.05;110356;1247;67852;-74
2022/07/16 09:43:15;;;;;;;;;;;;;;;26.89;33.96;97463.00;110520;1244;69535;-75
2022/07/16 09:45:49;;;;;;;;;;;;;;;26.64;33.63;97463.02;110336;1246;59695;-75
2022/07/16 09:48:20;;;;;;;;;;;;;;;26.53;34.02;97464.25;110186;1247;59666;-74
2022/07/16 09:50:50;;;;;;;;;;;;;;;26.45;34.01;97463.23;110466;1246;71470;-73
2022/07/16 09:53:24;;;;;;;;;;;;;;;26.30;34.62;97462.77;110292;1247;68591;-73
2022/07/16 09:55:55;;;;;;;;;;;;;;;26.55;33.92;97453.11;110435;1246;69872;-77
2022/07/16 09:58:24;;;;;;;;;;;;;;;26.78;33.08;97456.03;110229;1247;59703;-74
2022/07/16 10:00:54;;;;;;;;;;;;;;;26.69;33.52;97451.41;110376;1246;59691;-73
2022/07/16 10:03:23;;;;;;;;;;;;;;;27.10;32.98;97447.05;110530;1245;71596;-73
2022/07/16 10:05:52;;;;;;;;;;;;;;;27.45;32.81;97447.74;110209;1245;67947;-72
2022/07/16 10:08:22;;;;;;;;;;;;;;;27.56;32.43;97443.44;110262;1247;68638;-74
2022/07/16 10:10:51;;;;;;;;;;;;;;;27.79;31.75;97439.77;110468;1246;59689;-74
2022/07/16 10:13:25;;;;;;;;;;;;;;;27.87;30.75;97437.95;110216;1247;59736;-74
2022/07/16 10:15:55;;;;;;;;;;;;;;;27.91;30.51;97434.97;110295;1247;72253;-77
2022/07/16 10:18:31;;;;;;;;;;;;;;;27.64;31.12;97429.55;110528;1246;68099;-75
2022/07/16 10:21:03;;;;;;;;;;;;;;;27.47;31.67;97433.45;110255;1246;67731;-75
2022/07/16 10:23:32;;;;;;;;;;;;;;;26.93;32.35;97439.29;110517;1244;59688;-75
2022/07/16 10:26:21;;;;;;;;;;;;;;;26.41;33.71;97431.13;110239;1247;59732;-74
2022/07/16 10:28:52;;;;;;;;;;;;;;;26.17;34.36;97447.21;110413;1247;71348;-74
2022/07/16 10:31:33;;;;;;;;;;;;;;;25.88;34.49;97439.16;110399;1245;67493;-74
2022/07/16 10:34:14;;;;;;;;;;;;;;;25.60;35.07;97438.19;110447;1244;68732;-74
2022/07/16 10:36:46;;;;;;;;;;;;;;;25.47;35.13;97440.36;110220;1244;60104;-76
2022/07/16 10:39:16;;;;;;;;;;;;;;;25.34;35.57;97441.27;110574;1245;59683;-75
2022/07/16 10:41:49;;;;;;;;;;;;;;;25.24;35.56;97443.47;110276;1247;71685;-77
2022/07/16 10:44:19;;;;;;;;;;;;;;;25.21;35.80;97436.57;110276;1247;68099;-73
2022/07/16 10:46:52;;;;;;;;;;;;;;;25.28;35.35;97444.39;110306;1245;69465;-74
2022/07/16 10:49:21;;;;;;;;;;;;;;;25.22;35.42;97444.47;110399;1245;59638;-74
2022/07/16 10:51:55;;;;;;;;;;;;;;;25.20;35.48;97442.41;110431;1244;59749;-76
2022/07/16 10:54:30;;;;;;;;;;;;;;;25.16;36.38;97434.13;110196;1247;70772;-73
2022/07/16 10:57:01;;;;;;;;;;;;;;;25.34;35.58;97435.92;110276;1247;67815;-73
2022/07/16 10:59:32;;;;;;;;;;;;;;;25.27;35.94;97436.80;110417;1244;68656;-75
2022/07/16 11:02:02;;;;;;;;;;;;;;;25.40;35.16;97435.14;110420;1245;59745;-74
2022/07/16 11:04:31;;;;;;;;;;;;;;;25.30;35.89;97434.14;110575;1244;59742;-73
2022/07/16 11:07:11;;;;;;;;;;;;;;;25.39;35.97;97430.36;110289;1247;71604;-74
2022/07/16 11:09:46;;;;;;;;;;;;;;;25.39;35.63;97429.25;110243;1247;68123;-75
2022/07/16 11:12:14;;;;;;;;;;;;;;;25.48;35.81;97421.34;110552;1244;68824;-75
2022/07/16 11:14:45;;;;;;;;;;;;;;;25.70;35.92;97416.36;110386;1247;59627;-75
2022/07/16 11:17:15;;;;;;;;;;;;;;;26.04;35.20;97423.80;110457;1246;59755;-74
2022/07/16 11:19:48;;;;;;;;;;;;;;;26.22;34.84;97426.98;110347;1246;71330;-74
2022/07/16 11:22:17;;;;;;;;;;;;;;;26.30;34.66;97424.90;110528;1246;68044;-74
2022/07/16 11:24:51;;;;;;;;;;;;;;;26.27;34.81;97423.48;110184;1247;69436;-73
2022/07/16 11:27:31;;;;;;;;;;;;;;;26.21;34.87;97419.89;110192;1247;59826;-73
2022/07/16 11:30:05;;;;;;;;;;;;;;;26.20;34.91;97409.34;110419;1245;59773;-73
2022/07/16 11:32:41;;;;;;;;;;;;;;;26.35;34.77;97414.85;110364;1246;70786;-76
2022/07/16 11:35:10;;;;;;;;;;;;;;;26.50;35.06;97407.02;110184;1247;68077;-76
2022/07/16 11:37:53;;;;;;;;;;;;;;;26.50;34.51;97406.44;110178;1247;68644;-74
2022/07/16 11:40:35;;;;;;;;;;;;;;;26.25;35.08;97403.71;110359;1244;59799;-77
2022/07/16 11:43:04;;;;;;;;;;;;;;;26.18;35.18;97407.61;110407;1246;59720;-75
2022/07/16 11:45:43;;;;;;;;;;;;;;;26.25;35.03;97406.56;110508;1245;71002;-77
2022/07/16 11:48:14;;;;;;;;;;;;;;;26.26;35.11;97407.84;110224;1247;67795;-78
2022/07/16 11:50:44;;;;;;;;;;;;;;;26.36;35.01;97400.67;110250;1246;68670;-76
2022/07/16 11:53:13;;;;;;;;;;;;;;;26.48;34.98;97404.12;110265;1245;59707;-74
2022/07/16 11:55:43;;;;;;;;;;;;;;;26.50;34.97;97400.11;110271;1247;59666;-72
2022/07/16 11:58:12;;;;;;;;;;;;;;;26.53;35.00;97394.16;110194;1247;70849;-74
2022/07/16 12:00:42;;;;;;;;;;;;;;;26.63;34.88;97392.09;110169;1247;68590;-77
2022/07/16 12:03:11;;;;;;;;;;;;;;;26.71;34.50;97392.59;110234;1247;69293;-74
2022/07/16 12:05:41;;;;;;;;;;;;;;;26.79;34.61;97389.20;110235;1247;59747;-76
2022/07/16 12:08:10;;;;;;;;;;;;;;;26.96;34.54;97385.35;110231;1247;59659;-72
2022/07/16 12:11:04;;;;;;;;;;;;;;;27.34;34.35;97382.75;110285;1247;72022;-75
2022/07/16 12:13:38;;;;;;;;;;;;;;;27.33;33.50;97383.25;110342;1244;67864;-78
2022/07/16 12:16:12;;;;;;;;;;;;;;;27.36;33.47;97387.65;110514;1244;69381;-75
2022/07/16 12:18:57;;;;;;;;;;;;;;;27.65;33.02;97386.90;110272;1247;59684;-75
2022/07/16 12:21:27;;;;;;;;;;;;;;;27.53;32.01;97379.98;110308;1246;59716;-74
2022/07/16 12:23:58;;;;;;;;;;;;;;;27.71;32.45;97385.21;110351;1245;70722;-72
2022/07/16 12:26:29;;;;;;;;;;;;;;;27.98;31.53;97387.30;110252;1247;68549;-74
2022/07/16 12:29:00;;;;;;;;;;;;;;;28.13;31.72;97388.59;110470;1244;68362;-75
2022/07/16 12:31:29;;;;;;;;;;;;;;;28.29;31.98;97390.02;110459;1244;59755;-75
2022/07/16 12:34:00;;;;;;;;;;;;;;;28.24;31.26;97392.69;110542;1244;59707;-72
2022/07/16 12:36:31;;;;;;;;;;;;;;;28.16;31.48;97389.89;110557;1244;70762;-76
2022/07/16 12:39:05;;;;;;;;;;;;;;;28.20;31.39;97389.39;110552;1244;68603;-72
2022/07/16 12:41:42;;;;;;;;;;;;;;;28.39;31.65;97383.92;110242;1247;69454;-73
2022/07/16 12:44:19;;;;;;;;;;;;;;;28.24;31.58;97393.58;110406;1244;59703;-74
2022/07/16 12:46:48;;;;;;;;;;;;;;;27.96;31.92;97385.02;110111;1247;59701;-75
2022/07/16 12:49:26;;;;;;;;;;;;;;;27.76;32.07;97377.95;110418;1247;70696;-74
2022/07/16 12:51:56;;;;;;;;;;;;;;;27.75;32.49;97377.16;110394;1244;69077;-76
2022/07/16 12:54:25;;;;;;;;;;;;;;;27.84;32.90;97375.14;110497;1244;68873;-76
2022/07/16 12:59:41;;;;;;;;;;;;;;;28.32;31.65;97371.69;110253;1247;59703;-74
2022/07/16 13:02:10;;;;;;;;;;;;;;;28.55;30.95;97367.11;110524;1244;71569;-73
2022/07/16 13:04:39;;;;;;;;;;;;;;;28.40;31.21;97369.11;110478;1245;69204;-74